createdAt,value
2019-05-23T00:01:31.735Z,3.77
2019-05-23T00:04:16.434Z,4.23
2019-05-23T00:06:44.271Z,3.30
2019-05-23T00:09:10.538Z,3.53
2019-05-23T00:11:47.754Z,2.43
2019-05-23T00:14:37.348Z,4.03
2019-05-23T00:17:04.651Z,3.53
2019-05-23T00:19:32.000Z,3.27
2019-05-23T00:21:58.239Z,3.03
2019-05-23T00:24:26.674Z,2.80
2019-05-23T00:26:53.220Z,3.67
2019-05-23T00:29:20.373Z,5.07
2019-05-23T00:31:51.680Z,4.43
2019-05-23T00:34:19.312Z,2.90
2019-05-23T00:36:46.061Z,5.27
2019-05-23T00:39:14.001Z,3.03
2019-05-23T00:41:41.347Z,4.20
2019-05-23T00:44:08.277Z,2.73
2019-05-23T00:46:36.830Z,3.93
2019-05-23T00:49:04.156Z,2.30
2019-05-23T00:51:31.107Z,3.27
2019-05-23T00:53:57.940Z,3.47
2019-05-23T00:56:26.097Z,4.57
2019-05-23T00:58:53.677Z,4.13
2019-05-23T01:01:20.733Z,3.90
2019-05-23T01:03:47.674Z,3.47
2019-05-23T01:06:14.388Z,4.37
2019-05-23T01:08:40.630Z,2.53
2019-05-23T01:11:07.352Z,3.67
2019-05-23T01:13:33.608Z,4.60
2019-05-23T01:16:00.386Z,5.53
2019-05-23T01:18:26.772Z,4.50
2019-05-23T01:20:57.848Z,2.70
2019-05-23T01:23:26.215Z,4.83
2019-05-23T01:25:52.762Z,2.93
2019-05-23T01:28:20.241Z,2.77
2019-05-23T01:30:48.282Z,3.47
2019-05-23T01:33:14.707Z,3.50
2019-05-23T01:35:41.247Z,3.47
2019-05-23T01:38:07.578Z,2.63
2019-05-23T01:40:35.426Z,3.03
2019-05-23T01:43:01.649Z,4.60
2019-05-23T01:45:29.501Z,2.97
2019-05-23T01:47:57.142Z,3.20
2019-05-23T01:50:25.406Z,4.17
2019-05-23T01:52:52.246Z,3.70
2019-05-23T01:55:19.561Z,2.97
2019-05-23T01:57:46.705Z,3.57
2019-05-23T02:00:15.155Z,2.63
2019-05-23T02:02:41.693Z,4.90
2019-05-23T02:05:09.449Z,2.97
2019-05-23T02:07:36.679Z,3.10
2019-05-23T02:10:05.642Z,4.13
2019-05-23T02:12:32.977Z,4.63
2019-05-23T02:14:59.923Z,3.27
2019-05-23T02:17:26.671Z,2.40
2019-05-23T02:19:53.006Z,3.40
2019-05-23T02:22:19.844Z,2.83
2019-05-23T02:24:46.083Z,4.73
2019-05-23T02:27:12.372Z,3.33
2019-05-23T02:29:39.293Z,2.57
2019-05-23T02:32:06.536Z,3.10
2019-05-23T02:34:32.778Z,3.40
2019-05-23T02:37:01.025Z,2.93
2019-05-23T02:39:45.502Z,4.17
2019-05-23T02:42:13.866Z,3.50
2019-05-23T02:44:40.908Z,2.70
2019-05-23T02:47:11.714Z,2.80
2019-05-23T02:49:38.844Z,4.57
2019-05-23T02:52:22.361Z,4.90
2019-05-23T02:54:51.401Z,3.47
2019-05-23T02:57:19.242Z,4.20
2019-05-23T02:59:49.141Z,4.50
2019-05-23T03:02:46.771Z,3.73
2019-05-23T03:05:15.905Z,3.33
2019-05-23T03:07:43.973Z,4.53
2019-05-23T03:10:12.418Z,4.93
2019-05-23T03:12:40.562Z,4.27
2019-05-23T03:15:08.098Z,3.97
2019-05-23T03:17:42.395Z,4.97
2019-05-23T03:20:10.840Z,5.33
2019-05-23T03:22:49.785Z,3.77
2019-05-23T03:25:39.015Z,3.73
2019-05-23T03:28:08.968Z,5.10
2019-05-23T03:30:43.369Z,5.00
2019-05-23T03:33:09.611Z,4.80
2019-05-23T03:35:40.742Z,5.10
2019-05-23T03:38:08.575Z,5.73
2019-05-23T03:40:35.738Z,4.53
2019-05-23T03:43:03.279Z,4.60
2019-05-23T03:45:38.476Z,4.57
2019-05-23T03:48:03.177Z,4.67
2019-05-23T03:50:30.011Z,5.23
2019-05-23T03:52:56.369Z,6.80
2019-05-23T03:55:24.291Z,4.43
2019-05-23T03:57:52.320Z,4.77
2019-05-23T04:00:20.466Z,4.53
2019-05-23T04:02:48.697Z,4.47
2019-05-23T04:05:15.740Z,4.43
2019-05-23T04:07:41.980Z,4.73
2019-05-23T04:10:08.731Z,3.87
2019-05-23T04:12:35.302Z,6.13
2019-05-23T04:15:03.157Z,4.23
2019-05-23T04:17:29.404Z,6.77
2019-05-23T04:19:55.655Z,6.93
2019-05-23T04:22:22.310Z,6.63
2019-05-23T04:24:48.849Z,7.47
2019-05-23T04:27:15.394Z,5.73
2019-05-23T04:29:41.636Z,5.87
2019-05-23T04:32:09.329Z,6.43
2019-05-23T04:34:35.631Z,5.13
2019-05-23T04:37:02.787Z,5.87
2019-05-23T04:39:29.925Z,7.90
2019-05-23T04:41:56.357Z,6.80
2019-05-23T04:44:22.587Z,4.77
2019-05-23T04:46:49.424Z,4.90
2019-05-23T04:49:15.855Z,5.33
2019-05-23T04:51:42.606Z,4.83
2019-05-23T04:54:08.939Z,4.67
2019-05-23T04:56:35.463Z,5.60
2019-05-23T04:59:02.710Z,4.40
2019-05-23T05:01:29.551Z,6.17
2019-05-23T05:03:55.789Z,6.97
2019-05-23T05:06:22.024Z,6.50
2019-05-23T05:08:48.967Z,5.73
2019-05-23T05:11:15.697Z,7.33
2019-05-23T05:13:41.925Z,4.77
2019-05-23T05:16:08.449Z,3.90
2019-05-23T05:18:35.797Z,9.03
2019-05-23T05:21:02.026Z,5.07
2019-05-23T05:23:28.483Z,4.83
2019-05-23T05:25:54.737Z,5.30
2019-05-23T05:28:21.012Z,5.13
2019-05-23T05:30:47.348Z,7.27
2019-05-23T05:33:13.694Z,4.57
2019-05-23T05:35:40.624Z,6.07
2019-05-23T05:38:07.029Z,5.47
2019-05-23T05:40:33.311Z,5.27
2019-05-23T05:43:01.672Z,6.50
2019-05-23T05:45:28.097Z,7.57
2019-05-23T05:47:54.622Z,6.33
2019-05-23T05:50:21.065Z,4.53
2019-05-23T05:52:47.890Z,4.87
2019-05-23T05:55:14.637Z,4.83
2019-05-23T05:57:40.864Z,5.60
2019-05-23T06:00:13.106Z,5.27
2019-05-23T06:02:39.769Z,6.30
2019-05-23T06:05:07.205Z,5.63
2019-05-23T06:07:34.833Z,5.07
2019-05-23T06:10:02.879Z,5.00
2019-05-23T06:12:29.415Z,4.50
2019-05-23T06:14:55.655Z,4.83
2019-05-23T06:17:22.485Z,6.17
2019-05-23T06:19:48.934Z,4.90
2019-05-23T06:22:15.409Z,5.63
2019-05-23T06:24:49.209Z,4.23
2019-05-23T06:27:14.651Z,6.53
2019-05-23T06:29:40.900Z,4.70
2019-05-23T06:32:08.953Z,5.17
2019-05-23T06:34:35.384Z,4.50
2019-05-23T06:37:01.823Z,4.93
2019-05-23T06:39:28.050Z,7.17
2019-05-23T06:41:54.591Z,4.33
2019-05-23T06:44:20.816Z,6.07
2019-05-23T06:46:47.566Z,6.83
2019-05-23T06:49:13.785Z,5.40
2019-05-23T06:51:40.145Z,6.27
2019-05-23T06:54:06.386Z,5.83
2019-05-23T06:56:32.932Z,5.57
2019-05-23T06:58:59.162Z,3.00
2019-05-23T07:01:25.409Z,5.30
2019-05-23T07:03:52.054Z,4.90
2019-05-23T07:06:22.079Z,3.97
2019-05-23T07:08:48.314Z,2.43
2019-05-23T07:11:18.180Z,4.33
2019-05-23T07:13:45.915Z,4.40
2019-05-23T07:16:12.373Z,5.60
2019-05-23T07:18:40.716Z,5.30
2019-05-23T07:21:08.206Z,4.53
2019-05-23T07:23:34.621Z,4.10
2019-05-23T07:26:00.956Z,4.60
2019-05-23T07:28:27.314Z,4.40
2019-05-23T07:30:53.648Z,6.80
2019-05-23T07:33:19.914Z,6.07
2019-05-23T07:35:46.189Z,4.60
2019-05-23T07:38:12.440Z,5.03
2019-05-23T07:40:38.631Z,5.63
2019-05-23T07:43:06.683Z,6.03
2019-05-23T07:45:34.714Z,4.97
2019-05-23T07:48:01.134Z,4.33
2019-05-23T07:50:27.481Z,4.37
2019-05-23T07:52:55.996Z,5.10
2019-05-23T07:55:30.522Z,4.90
2019-05-23T07:57:56.849Z,5.27
2019-05-23T08:00:24.909Z,5.87
2019-05-23T08:02:51.650Z,6.17
2019-05-23T08:05:18.794Z,4.67
2019-05-23T08:07:45.330Z,7.77
2019-05-23T08:10:11.886Z,7.25
2019-05-23T08:12:38.609Z,5.43
2019-05-23T08:15:05.472Z,4.77
2019-05-23T08:17:32.702Z,4.20
2019-05-23T08:19:59.110Z,3.90
2019-05-23T08:22:25.349Z,5.47
2019-05-23T08:24:52.024Z,5.17
2019-05-23T08:27:18.475Z,6.53
2019-05-23T08:29:45.320Z,5.23
2019-05-23T08:32:12.081Z,5.80
2019-05-23T08:34:42.455Z,4.87
2019-05-23T08:37:08.464Z,7.07
2019-05-23T08:39:34.744Z,6.27
2019-05-23T08:42:01.831Z,4.40
2019-05-23T08:44:28.056Z,4.17
2019-05-23T08:46:54.397Z,5.50
2019-05-23T08:49:21.650Z,4.23
2019-05-23T08:51:47.891Z,4.77
2019-05-23T08:54:14.347Z,4.87
2019-05-23T08:56:40.687Z,5.03
2019-05-23T08:59:08.222Z,4.33
2019-05-23T09:01:35.603Z,4.87
2019-05-23T09:04:01.878Z,4.07
2019-05-23T09:06:28.159Z,3.87
2019-05-23T09:08:54.381Z,6.63
2019-05-23T09:11:21.315Z,7.00
2019-05-23T09:13:47.882Z,5.50
2019-05-23T09:16:14.143Z,3.53
2019-05-23T09:18:40.417Z,4.87
2019-05-23T09:21:06.953Z,5.57
2019-05-23T09:23:33.204Z,6.03
2019-05-23T09:25:59.480Z,4.40
2019-05-23T09:28:25.852Z,2.40
2019-05-23T09:30:52.085Z,4.57
2019-05-23T09:33:18.439Z,3.27
2019-05-23T09:35:45.584Z,3.10
2019-05-23T09:38:11.837Z,3.10
2019-05-23T09:40:38.086Z,3.27
2019-05-23T09:43:04.923Z,3.03
2019-05-23T09:45:31.486Z,3.37
2019-05-23T09:47:58.292Z,3.20
2019-05-23T09:50:24.929Z,3.07
2019-05-23T09:52:51.195Z,4.03
2019-05-23T09:55:17.586Z,2.67
2019-05-23T09:57:44.004Z,3.37
2019-05-23T10:00:12.485Z,4.27
2019-05-23T10:02:38.822Z,3.27
2019-05-23T10:05:10.934Z,3.00
2019-05-23T10:07:37.294Z,2.43
2019-05-23T10:10:04.778Z,1.93
2019-05-23T10:12:31.012Z,2.30
2019-05-23T10:14:57.560Z,2.17
2019-05-23T10:17:24.239Z,2.40
2019-05-23T10:19:50.564Z,2.37
2019-05-23T10:22:17.139Z,1.87
2019-05-23T10:24:43.387Z,2.00
2019-05-23T10:27:11.445Z,2.30
2019-05-23T10:29:37.686Z,2.63
2019-05-23T10:32:05.539Z,2.03
2019-05-23T10:34:31.983Z,1.80
2019-05-23T10:36:58.369Z,2.77
2019-05-23T10:39:24.610Z,1.90
2019-05-23T10:41:50.990Z,1.90
2019-05-23T10:44:17.221Z,1.60
2019-05-23T10:46:43.474Z,2.77
2019-05-23T10:49:10.429Z,2.57
2019-05-23T10:51:36.759Z,1.33
2019-05-23T10:54:03.206Z,1.33
2019-05-23T10:56:29.469Z,1.70
2019-05-23T10:58:56.035Z,1.33
2019-05-23T11:01:22.691Z,2.30
2019-05-23T11:03:48.942Z,1.33
2019-05-23T11:06:17.037Z,1.33
2019-05-23T11:08:43.900Z,3.00
2019-05-23T11:11:14.189Z,1.97
2019-05-23T11:13:39.190Z,1.87
2019-05-23T11:16:05.448Z,1.33
2019-05-23T11:18:31.905Z,1.60
2019-05-23T11:20:58.221Z,1.47
2019-05-23T11:23:26.764Z,1.37
2019-05-23T11:25:53.364Z,1.30
2019-05-23T11:28:19.807Z,5.00
2019-05-23T11:30:50.599Z,1.83
2019-05-23T11:33:17.128Z,1.30
2019-05-23T11:35:44.313Z,1.30
2019-05-23T11:38:10.565Z,2.80
2019-05-23T11:40:36.916Z,1.07
2019-05-23T11:43:03.161Z,1.60
2019-05-23T11:45:31.201Z,1.20
2019-05-23T11:47:57.488Z,2.23
2019-05-23T11:50:23.689Z,1.97
2019-05-23T11:52:50.036Z,1.73
2019-05-23T11:55:16.375Z,1.53
2019-05-23T11:57:42.741Z,1.53
2019-05-23T12:00:11.056Z,2.80
2019-05-23T12:02:39.617Z,2.30
2019-05-23T12:05:07.751Z,1.70
2019-05-23T12:07:34.501Z,1.20
2019-05-23T12:10:00.832Z,1.03
2019-05-23T12:12:27.173Z,2.37
2019-05-23T12:14:53.713Z,0.90
2019-05-23T12:17:21.516Z,1.67
2019-05-23T12:19:48.475Z,2.27
2019-05-23T12:22:15.796Z,4.03
2019-05-23T12:24:42.043Z,1.53
2019-05-23T12:27:08.314Z,1.67
2019-05-23T12:29:34.643Z,2.07
2019-05-23T12:32:01.169Z,2.07
2019-05-23T12:34:27.847Z,3.17
2019-05-23T12:37:14.329Z,1.67
2019-05-23T12:39:22.717Z,1.73
2019-05-23T12:41:48.969Z,1.53
2019-05-23T12:44:17.561Z,1.37
2019-05-23T12:46:43.460Z,1.40
2019-05-23T12:49:11.505Z,1.10
2019-05-23T12:51:41.939Z,1.03
2019-05-23T12:54:08.629Z,1.80
2019-05-23T12:56:35.637Z,2.67
2019-05-23T12:59:03.012Z,2.00
2019-05-23T13:01:29.266Z,1.33
2019-05-23T13:03:56.210Z,1.40
2019-05-23T13:06:22.764Z,1.33
2019-05-23T13:08:49.011Z,1.33
2019-05-23T13:11:15.637Z,0.90
2019-05-23T13:13:41.880Z,1.93
2019-05-23T13:16:08.119Z,3.67
2019-05-23T13:18:34.463Z,2.00
2019-05-23T13:21:00.690Z,1.13
2019-05-23T13:23:27.232Z,1.87
2019-05-23T13:25:53.733Z,1.40
2019-05-23T13:28:20.013Z,1.33
2019-05-23T13:30:46.256Z,3.27
2019-05-23T13:33:12.808Z,2.57
2019-05-23T13:35:39.149Z,1.63
2019-05-23T13:38:05.509Z,1.83
2019-05-23T13:40:31.734Z,2.13
2019-05-23T13:42:58.219Z,2.60
2019-05-23T13:45:24.498Z,1.10
2019-05-23T13:47:50.754Z,1.80
2019-05-23T13:50:18.402Z,1.60
2019-05-23T13:52:44.981Z,1.97
2019-05-23T13:55:11.312Z,1.90
2019-05-23T13:57:37.538Z,2.33
2019-05-23T14:00:05.494Z,3.23
2019-05-23T14:02:31.838Z,2.50
2019-05-23T14:04:58.189Z,1.57
2019-05-23T14:07:26.034Z,1.30
2019-05-23T14:09:52.610Z,1.57
2019-05-23T14:12:21.201Z,1.70
2019-05-23T14:14:47.467Z,2.17
2019-05-23T14:17:18.272Z,1.30
2019-05-23T14:19:44.530Z,2.10
2019-05-23T14:22:10.755Z,1.50
2019-05-23T14:24:38.040Z,1.70
2019-05-23T14:27:12.139Z,2.63
2019-05-23T14:29:38.735Z,1.97
2019-05-23T14:32:12.709Z,1.40
2019-05-23T14:34:38.935Z,1.80
2019-05-23T14:37:15.991Z,2.73
2019-05-23T14:39:43.015Z,2.60
2019-05-23T14:42:16.616Z,2.23
2019-05-23T14:44:42.843Z,4.43
2019-05-23T14:47:20.147Z,3.07
2019-05-23T14:50:06.017Z,2.23
2019-05-23T14:52:34.549Z,1.77
2019-05-23T14:55:02.595Z,3.27
2019-05-23T14:57:29.134Z,2.03
2019-05-23T14:59:55.893Z,2.03
2019-05-23T15:02:23.258Z,1.70
2019-05-23T15:04:49.506Z,1.50
2019-05-23T15:07:15.783Z,2.57
2019-05-23T15:09:42.423Z,2.23
2019-05-23T15:12:09.253Z,2.03
2019-05-23T15:14:36.670Z,2.77
2019-05-23T15:17:03.442Z,2.60
2019-05-23T15:19:41.755Z,4.13
2019-05-23T15:21:58.679Z,1.90
2019-05-23T15:24:25.226Z,2.13
2019-05-23T15:26:51.561Z,3.77
2019-05-23T15:29:17.907Z,3.30
2019-05-23T15:31:59.161Z,2.00
2019-05-23T15:34:12.291Z,2.53
2019-05-23T15:36:38.528Z,2.17
2019-05-23T15:39:10.019Z,1.70
2019-05-23T15:41:35.431Z,4.20
2019-05-23T15:44:01.692Z,3.67
2019-05-23T15:46:27.922Z,2.30
2019-05-23T15:48:54.180Z,3.43
2019-05-23T15:51:22.292Z,3.10
2019-05-23T15:54:02.841Z,4.13
2019-05-23T15:56:46.080Z,2.00
2019-05-23T15:59:22.707Z,2.63
2019-05-23T16:01:53.262Z,3.53
2019-05-23T16:04:21.121Z,3.03
2019-05-23T16:06:47.459Z,2.83
2019-05-23T16:09:28.597Z,3.23
2019-05-23T16:11:42.991Z,4.60
2019-05-23T16:14:09.219Z,3.73
2019-05-23T16:16:35.876Z,2.03
2019-05-23T16:19:02.154Z,3.67
2019-05-23T16:21:28.372Z,2.70
2019-05-23T16:23:54.618Z,2.13
2019-05-23T16:26:20.964Z,2.43
2019-05-23T16:28:47.254Z,1.80
2019-05-23T16:31:13.752Z,2.40
2019-05-23T16:33:39.998Z,2.47
2019-05-23T16:36:06.540Z,3.33
2019-05-23T16:38:32.774Z,2.07
2019-05-23T16:40:59.017Z,2.13
2019-05-23T16:43:25.258Z,4.70
2019-05-23T16:45:51.644Z,2.37
2019-05-23T16:48:17.856Z,2.80
2019-05-23T16:50:44.092Z,2.43
2019-05-23T16:53:10.352Z,3.73
2019-05-23T16:55:47.232Z,2.30
2019-05-23T16:58:27.164Z,1.70
2019-05-23T17:00:55.193Z,2.43
2019-05-23T17:03:35.027Z,2.50
2019-05-23T17:06:21.336Z,3.40
2019-05-23T17:08:51.898Z,3.33
2019-05-23T17:11:29.730Z,2.73
2019-05-23T17:14:00.933Z,2.10
2019-05-23T17:16:28.989Z,3.97
2019-05-23T17:18:59.845Z,3.03
2019-05-23T17:21:30.771Z,2.20
2019-05-23T17:24:01.373Z,3.00
2019-05-23T17:26:38.239Z,3.27
2019-05-23T17:29:24.728Z,3.83
2019-05-23T17:31:52.760Z,2.27
2019-05-23T17:34:19.024Z,2.67
2019-05-23T17:36:45.374Z,2.63
2019-05-23T17:39:12.225Z,3.03
2019-05-23T17:41:38.966Z,5.87
2019-05-23T17:44:05.192Z,3.17
2019-05-23T17:46:31.573Z,4.13
2019-05-23T17:48:57.798Z,3.83
2019-05-23T17:51:24.056Z,2.83
2019-05-23T17:53:50.283Z,2.83
2019-05-23T17:56:17.354Z,6.43
2019-05-23T17:58:43.589Z,5.77
2019-05-23T18:01:10.440Z,3.33
2019-05-23T18:03:36.675Z,2.43
2019-05-23T18:06:03.576Z,4.03
2019-05-23T18:08:29.826Z,2.40
2019-05-23T18:10:56.313Z,2.50
2019-05-23T18:13:22.539Z,3.20
2019-05-23T18:15:49.215Z,2.07
2019-05-23T18:18:15.465Z,2.57
2019-05-23T18:20:42.305Z,4.70
2019-05-23T18:23:09.747Z,2.60
2019-05-23T18:25:36.593Z,3.87
2019-05-23T18:28:03.959Z,2.23
2019-05-23T18:30:32.202Z,2.57
2019-05-23T18:32:59.344Z,3.37
2019-05-23T18:35:26.483Z,3.70
2019-05-23T18:37:53.030Z,4.83
2019-05-23T18:40:19.671Z,4.43
2019-05-23T18:42:46.117Z,2.40
2019-05-23T18:45:13.652Z,4.10
2019-05-23T18:47:41.704Z,2.70
2019-05-23T18:50:09.437Z,2.53
2019-05-23T18:52:35.791Z,2.47
2019-05-23T18:55:03.843Z,2.73
2019-05-23T18:57:30.095Z,2.40
2019-05-23T18:59:56.328Z,3.97
2019-05-23T19:02:23.484Z,3.63
2019-05-23T19:04:50.715Z,2.40
2019-05-23T19:07:17.014Z,3.07
2019-05-23T19:09:43.473Z,2.90
2019-05-23T19:12:12.939Z,3.67
2019-05-23T19:14:39.492Z,3.60
2019-05-23T19:17:06.922Z,2.90
2019-05-23T19:19:33.465Z,2.73
2019-05-23T19:21:59.919Z,3.37
2019-05-23T19:24:26.649Z,5.43
2019-05-23T19:26:53.384Z,6.27
2019-05-23T19:29:20.499Z,4.70
2019-05-23T19:31:46.904Z,3.10
2019-05-23T19:34:13.555Z,3.20
2019-05-23T19:36:40.087Z,3.97
2019-05-23T19:39:06.326Z,2.87
2019-05-23T19:41:37.478Z,3.20
2019-05-23T19:44:00.691Z,4.07
2019-05-23T19:46:27.323Z,2.80
2019-05-23T19:48:54.604Z,3.07
2019-05-23T19:51:21.607Z,4.70
2019-05-23T19:53:47.866Z,3.80
2019-05-23T19:56:14.093Z,3.53
2019-05-23T19:58:41.016Z,4.57
2019-05-23T20:01:07.678Z,2.57
2019-05-23T20:03:34.335Z,4.83
2019-05-23T20:06:00.966Z,3.40
2019-05-23T20:08:27.218Z,4.23
2019-05-23T20:10:53.461Z,3.10
2019-05-23T20:13:19.703Z,3.73
2019-05-23T20:15:46.288Z,3.40
2019-05-23T20:18:13.083Z,3.90
2019-05-23T20:20:39.421Z,3.47
2019-05-23T20:23:05.656Z,3.50
2019-05-23T20:25:31.926Z,3.40
2019-05-23T20:27:58.158Z,3.97
2019-05-23T20:30:44.471Z,3.37
2019-05-23T20:33:10.700Z,4.13
2019-05-23T20:35:36.954Z,3.00
2019-05-23T20:38:03.387Z,3.33
2019-05-23T20:40:30.025Z,3.77
2019-05-23T20:42:56.250Z,3.90
2019-05-23T20:45:22.491Z,3.90
2019-05-23T20:47:48.724Z,4.40
2019-05-23T20:50:15.072Z,4.40
2019-05-23T20:52:41.529Z,3.27
2019-05-23T20:55:07.769Z,3.43
2019-05-23T20:57:33.997Z,3.37
2019-05-23T21:00:00.352Z,3.30
2019-05-23T21:02:27.087Z,4.33
2019-05-23T21:04:53.357Z,3.20
2019-05-23T21:07:19.598Z,3.30
2019-05-23T21:09:45.931Z,3.07
2019-05-23T21:12:28.450Z,3.20
2019-05-23T21:14:40.331Z,3.90
2019-05-23T21:17:06.577Z,3.63
2019-05-23T21:19:33.109Z,4.53
2019-05-23T21:21:59.471Z,3.23
2019-05-23T21:24:25.804Z,4.37
2019-05-23T21:26:52.064Z,3.67
2019-05-23T21:29:18.327Z,3.10
2019-05-23T21:31:44.580Z,3.30
2019-05-23T21:34:11.052Z,4.60
2019-05-23T21:36:37.398Z,4.57
2019-05-23T21:39:06.847Z,6.27
2019-05-23T21:41:33.109Z,4.77
2019-05-23T21:43:59.345Z,4.27
2019-05-23T21:46:25.574Z,4.70
2019-05-23T21:48:51.817Z,4.03
2019-05-23T21:51:21.074Z,3.30
2019-05-23T21:53:47.324Z,4.40
2019-05-23T21:56:13.561Z,4.77
2019-05-23T21:58:39.800Z,4.40
2019-05-23T22:01:09.558Z,5.03
2019-05-23T22:03:47.968Z,3.10
2019-05-23T22:06:16.118Z,4.23
2019-05-23T22:08:43.588Z,5.03
2019-05-23T22:11:10.144Z,3.50
2019-05-23T22:13:36.376Z,4.77
2019-05-23T22:16:02.717Z,3.27
2019-05-23T22:18:29.653Z,5.57
2019-05-23T22:20:55.876Z,4.60
2019-05-23T22:23:22.220Z,4.57
2019-05-23T22:25:48.445Z,4.90
2019-05-23T22:28:15.080Z,4.93
2019-05-23T22:30:41.330Z,7.57
2019-05-23T22:33:08.359Z,4.43
2019-05-23T22:35:34.913Z,4.33
2019-05-23T22:38:01.259Z,5.27
2019-05-23T22:40:27.502Z,3.83
2019-05-23T22:42:56.337Z,3.97
2019-05-23T22:45:24.389Z,5.23
2019-05-23T22:47:50.625Z,4.43
2019-05-23T22:50:17.169Z,5.13
2019-05-23T22:52:43.412Z,6.00
2019-05-23T22:55:09.749Z,5.70
2019-05-23T22:57:36.189Z,7.57
2019-05-23T23:00:04.351Z,6.20
2019-05-23T23:02:30.680Z,6.07
2019-05-23T23:04:56.928Z,4.07
2019-05-23T23:07:23.167Z,7.33
2019-05-23T23:09:49.410Z,5.73
2019-05-23T23:12:15.648Z,6.17
2019-05-23T23:14:41.891Z,5.10
2019-05-23T23:17:08.141Z,6.67
2019-05-23T23:19:34.375Z,5.67
2019-05-23T23:22:00.629Z,7.00
2019-05-23T23:24:26.861Z,6.47
2019-05-23T23:26:53.109Z,6.73
2019-05-23T23:31:50.751Z,5.67
2019-05-23T23:34:16.984Z,7.13
2019-05-23T23:36:43.332Z,6.07
2019-05-23T23:39:09.581Z,6.90
2019-05-23T23:41:35.837Z,7.57
2019-05-23T23:44:02.087Z,7.47
2019-05-23T23:46:46.495Z,7.90
2019-05-23T23:49:31.014Z,7.53
2019-05-23T23:52:16.126Z,6.90
2019-05-23T23:55:00.511Z,7.43
2019-05-23T23:57:45.810Z,7.43
